Time;durP1;ratioP1;P1;durP2;ratioP2;P2;SDS_P1;SDS_P2;PMS_P1;PMS_P2;Temp;Humidity;BMP_temperature;BMP_pressure;BME280_temperature;BME280_humidity;BME280_pressure;Samples;Min_cycle;Max_cycle;Signal;HPM_P1;HPM_P2
2022/09/09 00:01:24;;;;;;;7.00;1.70;;;;;;;14.10;88.57;100666.56;4995202;28;20038;-86
2022/09/09 00:04:11;;;;;;;1.90;1.55;;;;;;;14.09;87.82;100668.44;5009040;28;20029;-87
2022/09/09 00:06:46;;;;;;;2.08;1.40;;;;;;;14.04;88.24;100668.84;4996962;28;20060;-86
2022/09/09 00:09:18;;;;;;;1.77;1.50;;;;;;;14.03;88.32;100666.22;4994463;28;20045;-85
2022/09/09 00:12:11;;;;;;;2.45;1.52;;;;;;;14.01;87.99;100660.91;4989723;28;20132;-85
2022/09/09 00:14:50;;;;;;;3.65;1.27;;;;;;;13.99;88.34;100656.59;4999545;28;20120;-86
2022/09/09 00:17:25;;;;;;;5.28;1.58;;;;;;;13.96;88.45;100659.59;5000913;28;20507;-86
2022/09/09 00:20:05;;;;;;;4.10;1.50;;;;;;;13.94;88.66;100664.31;5030609;28;20098;-87
2022/09/09 00:22:32;;;;;;;3.05;1.40;;;;;;;13.94;88.86;100657.00;4983398;28;20380;-86
2022/09/09 00:25:10;;;;;;;2.83;1.38;;;;;;;13.91;88.55;100648.19;4995139;28;20481;-87
2022/09/09 00:27:47;;;;;;;4.63;1.30;;;;;;;13.91;88.76;100648.19;5003746;28;20034;-86
2022/09/09 00:30:31;;;;;;;6.97;1.65;;;;;;;13.89;88.59;100658.41;5009119;28;20029;-86
2022/09/09 00:33:08;;;;;;;2.22;1.40;;;;;;;13.86;88.49;100665.03;4994191;28;20040;-86
2022/09/09 00:35:37;;;;;;;2.97;1.50;;;;;;;13.83;89.02;100657.09;5006167;28;20041;-86
2022/09/09 00:38:49;;;;;;;3.28;1.40;;;;;;;13.85;88.56;100659.66;4985487;28;20120;-87
2022/09/09 00:41:26;;;;;;;2.22;1.63;;;;;;;13.76;89.31;100647.72;4928420;29;20048;-87
2022/09/09 00:44:13;;;;;;;6.13;1.40;;;;;;;13.75;88.63;100646.81;4988110;28;20397;-87
2022/09/09 00:47:00;;;;;;;3.33;1.48;;;;;;;13.76;89.10;100645.84;5010719;28;20117;-86
2022/09/09 00:49:46;;;;;;;3.58;1.42;;;;;;;13.73;89.38;100640.63;5008614;28;20123;-86
2022/09/09 00:52:33;;;;;;;2.28;1.33;;;;;;;13.71;88.95;100636.31;5010543;28;20465;-86
2022/09/09 00:55:20;;;;;;;1.98;1.50;;;;;;;13.73;89.66;100629.69;4998991;28;20060;-87
2022/09/09 00:57:48;;;;;;;5.03;1.30;;;;;;;13.73;89.10;100631.56;5037242;28;20034;-86
2022/09/09 01:00:18;;;;;;;1.42;1.10;;;;;;;13.72;88.92;100632.56;5007237;28;20069;-86
2022/09/09 01:03:06;;;;;;;2.22;1.30;;;;;;;13.71;89.44;100634.44;5028429;28;20407;-87
2022/09/09 01:05:32;;;;;;;4.22;1.70;;;;;;;13.70;89.58;100638.16;5024273;28;20041;-86
2022/09/09 01:08:02;;;;;;;2.03;1.33;;;;;;;13.66;89.38;100646.78;4989381;28;20088;-86
2022/09/09 01:10:53;;;;;;;2.83;1.45;;;;;;;13.66;88.99;100635.84;4991489;28;20084;-86
2022/09/09 01:13:36;;;;;;;4.25;1.42;;;;;;;13.59;89.54;100634.66;5008701;28;20503;-86
2022/09/09 01:16:11;;;;;;;3.47;1.58;;;;;;;13.55;89.97;100635.94;4997120;28;20045;-86
2022/09/09 01:18:43;;;;;;;5.60;1.58;;;;;;;13.51;90.40;100630.72;4994709;28;20030;-86
2022/09/09 01:21:40;;;;;;;2.00;1.48;;;;;;;13.52;90.31;100624.28;4986459;28;20060;-86
2022/09/09 01:24:29;;;;;;;2.75;1.52;;;;;;;13.58;89.96;100636.53;4991138;28;20112;-86
2022/09/09 01:27:15;;;;;;;3.80;1.67;;;;;;;13.55;89.50;100633.19;4990403;28;20128;-87
2022/09/09 01:29:41;;;;;;;5.03;2.08;;;;;;;13.53;90.85;100627.88;4974923;28;20515;-86
2022/09/09 01:32:38;;;;;;;2.38;1.25;;;;;;;13.51;90.23;100629.88;4990992;28;20360;-87
2022/09/09 01:35:06;;;;;;;1.83;1.27;;;;;;;13.46;91.12;100624.81;5007708;28;20088;-86
2022/09/09 01:37:33;;;;;;;2.17;1.30;;;;;;;13.43;91.29;100627.81;4998692;28;20033;-86
2022/09/09 01:39:58;;;;;;;1.80;1.30;;;;;;;13.42;91.03;100619.75;5011179;28;20037;-87
2022/09/09 01:42:25;;;;;;;6.10;1.73;;;;;;;13.40;91.44;100622.63;4983552;28;20158;-87
2022/09/09 01:44:50;;;;;;;2.03;1.50;;;;;;;13.41;90.84;100618.88;5015944;28;20040;-87
2022/09/09 01:47:16;;;;;;;3.72;1.70;;;;;;;13.38;90.84;100604.63;5009466;28;20112;-85
2022/09/09 01:50:05;;;;;;;3.80;1.75;;;;;;;13.39;91.17;100614.56;4990668;28;20041;-86
2022/09/09 01:52:39;;;;;;;4.55;1.60;;;;;;;13.37;90.83;100611.94;5008108;28;20527;-87
2022/09/09 01:55:09;;;;;;;4.82;1.77;;;;;;;13.37;91.29;100606.47;4994161;28;20030;-86
2022/09/09 01:57:57;;;;;;;5.30;2.03;;;;;;;13.38;91.46;100608.25;5005031;28;20033;-86
2022/09/09 02:00:22;;;;;;;7.72;1.90;;;;;;;13.31;91.64;100608.91;4990551;28;20042;-86
2022/09/09 02:03:13;;;;;;;3.38;1.73;;;;;;;13.31;91.42;100609.75;5007042;28;20389;-87
2022/09/09 02:06:03;;;;;;;4.18;2.38;;;;;;;13.30;91.49;100608.03;4990184;28;20034;-86
2022/09/09 02:08:49;;;;;;;2.50;1.90;;;;;;;13.30;92.26;100607.19;5003403;28;20508;-86
2022/09/09 02:11:21;;;;;;;9.07;2.10;;;;;;;13.28;92.41;100604.56;5001631;28;20038;-86
2022/09/09 02:14:17;;;;;;;7.25;2.90;;;;;;;13.27;92.03;100595.50;4999789;28;20034;-86
2022/09/09 02:17:09;;;;;;;5.65;2.03;;;;;;;13.26;91.77;100599.25;4996986;28;20185;-87
2022/09/09 02:20:07;;;;;;;3.08;1.95;;;;;;;13.23;92.77;100596.75;4991225;28;20148;-86
2022/09/09 02:22:44;;;;;;;6.38;1.70;;;;;;;13.21;91.26;100597.88;4971475;28;20034;-86
2022/09/09 02:25:15;;;;;;;4.20;1.83;;;;;;;13.18;92.06;100593.53;4994086;28;20104;-86
2022/09/09 02:27:45;;;;;;;6.82;1.95;;;;;;;13.22;91.69;100594.19;5002180;28;20026;-87
2022/09/09 02:30:11;;;;;;;7.32;1.90;;;;;;;13.20;92.11;100596.16;4987876;28;20457;-86
2022/09/09 02:32:46;;;;;;;4.20;1.80;;;;;;;13.18;92.52;100593.53;4999083;28;20041;-87
2022/09/09 02:35:17;;;;;;;5.13;2.35;;;;;;;13.18;92.33;100587.22;5003300;28;20390;-86
2022/09/09 02:37:47;;;;;;;6.38;2.10;;;;;;;13.15;92.96;100584.75;5004147;28;20159;-86
2022/09/09 02:40:15;;;;;;;5.55;2.10;;;;;;;13.13;92.70;100594.94;5020954;28;20040;-86
2022/09/09 02:42:47;;;;;;;5.95;2.67;;;;;;;13.13;92.65;100587.63;5005901;28;20061;-87
2022/09/09 02:45:16;;;;;;;3.83;2.30;;;;;;;13.13;92.61;100586.75;5027073;28;20375;-87
2022/09/09 02:48:00;;;;;;;6.40;2.53;;;;;;;13.13;93.08;100586.75;5016548;28;20042;-87
2022/09/09 02:50:33;;;;;;;4.13;2.30;;;;;;;13.09;93.76;100580.69;4979715;28;20022;-86
2022/09/09 02:53:17;;;;;;;4.55;2.30;;;;;;;13.14;92.63;100596.66;4983102;28;20041;-86
2022/09/09 02:55:55;;;;;;;3.70;2.42;;;;;;;13.11;93.76;100589.63;4973932;28;20053;-87
2022/09/09 02:58:22;;;;;;;4.63;2.45;;;;;;;13.11;93.24;100589.63;4990877;28;20484;-86
2022/09/09 03:00:57;;;;;;;6.28;2.70;;;;;;;13.14;93.34;100592.06;5009683;28;20034;-85
2022/09/09 03:03:23;;;;;;;5.65;2.47;;;;;;;13.12;93.54;100593.22;5009642;28;20026;-86
2022/09/09 03:05:50;;;;;;;6.63;2.40;;;;;;;13.09;93.15;100586.16;5003291;28;20416;-86
2022/09/09 03:08:17;;;;;;;7.82;2.67;;;;;;;13.11;93.45;100594.22;4990257;28;20034;-86
2022/09/09 03:10:43;;;;;;;3.15;2.25;;;;;;;13.15;92.82;100598.41;4994482;28;20026;-86
2022/09/09 03:13:09;;;;;;;10.07;2.30;;;;;;;13.13;93.60;100601.28;4999249;28;20133;-85
2022/09/09 03:15:38;;;;;;;4.97;2.20;;;;;;;13.13;92.78;100605.88;5000909;28;20064;-86
2022/09/09 03:18:05;;;;;;;5.18;2.90;;;;;;;13.13;93.39;100603.13;5009475;28;20448;-86
2022/09/09 03:20:32;;;;;;;8.18;2.90;;;;;;;13.16;93.17;100608.34;5003425;28;20148;-85
2022/09/09 03:22:59;;;;;;;5.68;2.28;;;;;;;13.16;92.23;100609.22;5003655;28;20116;-86
2022/09/09 03:25:25;;;;;;;5.90;3.03;;;;;;;13.15;92.34;100609.31;5010583;28;20297;-86
2022/09/09 03:27:54;;;;;;;5.60;2.25;;;;;;;13.18;92.37;100614.53;5007619;28;20018;-86
2022/09/09 03:30:22;;;;;;;3.08;2.00;;;;;;;13.15;92.57;100604.75;5009399;28;20033;-87
2022/09/09 03:32:48;;;;;;;5.85;2.47;;;;;;;13.17;92.91;100607.34;5009236;28;20037;-87
2022/09/09 03:35:13;;;;;;;3.50;2.03;;;;;;;13.18;92.75;100601.72;4989025;28;20038;-86
2022/09/09 03:37:39;;;;;;;4.90;2.08;;;;;;;13.18;92.82;100598.13;5007279;28;20382;-86
2022/09/09 03:40:06;;;;;;;3.63;2.13;;;;;;;13.21;92.57;100597.88;5029060;28;20045;-86
2022/09/09 03:42:31;;;;;;;11.07;2.40;;;;;;;13.21;92.77;100596.00;5021461;28;20950;-85
2022/09/09 03:44:59;;;;;;;3.70;2.40;;;;;;;13.23;93.01;100599.50;4993499;28;20033;-87
2022/09/09 03:47:25;;;;;;;5.57;2.35;;;;;;;13.23;93.30;100598.63;5012819;28;20033;-86
2022/09/09 03:49:55;;;;;;;4.75;2.08;;;;;;;13.22;93.62;100591.44;5008363;28;20393;-86
2022/09/09 03:52:24;;;;;;;5.50;2.53;;;;;;;13.19;93.92;100595.25;4982433;28;20038;-86
2022/09/09 03:54:52;;;;;;;6.03;2.25;;;;;;;13.19;93.57;100597.13;5011939;28;20465;-86
2022/09/09 03:57:19;;;;;;;6.88;2.30;;;;;;;13.19;93.95;100591.66;5007726;28;20022;-86
2022/09/09 03:59:44;;;;;;;3.92;2.35;;;;;;;13.18;94.12;100590.81;5008809;28;20034;-86
2022/09/09 04:02:10;;;;;;;8.25;3.47;;;;;;;13.18;93.55;100593.53;5005427;28;20039;-86
2022/09/09 04:04:35;;;;;;;6.30;1.85;;;;;;;13.17;93.54;100589.09;5006923;28;20044;-86
2022/09/09 04:07:01;;;;;;;3.92;2.10;;;;;;;13.17;93.48;100590.94;4992481;28;20029;-86
2022/09/09 04:09:27;;;;;;;7.30;2.40;;;;;;;13.16;94.13;100584.63;4996463;28;20449;-87
2022/09/09 04:11:53;;;;;;;5.10;2.03;;;;;;;13.11;94.12;100584.16;5008007;28;20037;-87
2022/09/09 04:14:20;;;;;;;9.18;2.53;;;;;;;13.15;94.70;100584.75;5010513;28;20505;-86
2022/09/09 04:16:46;;;;;;;5.60;2.40;;;;;;;13.12;94.12;100587.75;4991022;28;20389;-86
2022/09/09 04:19:13;;;;;;;5.93;1.98;;;;;;;13.15;94.22;100590.19;4992247;28;20068;-86
2022/09/09 04:21:41;;;;;;;10.00;2.40;;;;;;;13.15;94.28;100593.81;5007232;28;20124;-86
2022/09/09 04:24:07;;;;;;;6.07;2.28;;;;;;;13.17;94.59;100590.94;5008037;28;20537;-85
2022/09/09 04:26:34;;;;;;;6.38;2.45;;;;;;;13.18;95.00;100584.47;4994024;28;20377;-86
2022/09/09 04:28:59;;;;;;;7.03;2.55;;;;;;;13.18;95.00;100579.03;4991232;28;20388;-86
2022/09/09 04:31:25;;;;;;;8.60;2.40;;;;;;;13.21;94.65;100585.09;4992667;28;20037;-87
2022/09/09 04:33:53;;;;;;;5.40;1.70;;;;;;;13.23;94.44;100585.84;4995460;28;20109;-86
2022/09/09 04:36:19;;;;;;;5.15;2.20;;;;;;;13.22;94.71;100581.38;4989542;28;20041;-85
2022/09/09 04:38:49;;;;;;;6.65;2.75;;;;;;;13.21;94.97;100579.63;5014728;28;20376;-87
2022/09/09 04:41:16;;;;;;;13.65;2.67;;;;;;;13.22;95.12;100584.13;5012461;28;20095;-86
2022/09/09 04:43:43;;;;;;;6.10;2.20;;;;;;;13.18;94.83;100582.63;4992405;28;20033;-86
2022/09/09 04:46:09;;;;;;;7.40;2.22;;;;;;;13.20;95.70;100577.03;4985422;28;20121;-86
2022/09/09 04:48:35;;;;;;;9.15;2.33;;;;;;;13.21;95.20;100578.75;5008432;28;20120;-86
2022/09/09 04:51:05;;;;;;;6.13;2.63;;;;;;;13.16;94.75;100573.69;4981082;28;20441;-85
2022/09/09 04:53:33;;;;;;;4.88;2.30;;;;;;;13.20;95.14;100568.84;4993308;28;20041;-86
2022/09/09 04:56:02;;;;;;;10.48;2.75;;;;;;;13.21;95.62;100567.84;4980603;28;20026;-86
2022/09/09 04:58:31;;;;;;;6.97;2.40;;;;;;;13.17;95.19;100569.97;5010818;28;20041;-86
2022/09/09 05:01:17;;;;;;;9.63;2.80;;;;;;;13.20;96.06;100568.84;4993721;28;20464;-86
2022/09/09 05:03:47;;;;;;;4.43;2.15;;;;;;;13.20;95.66;100561.50;5020455;28;20022;-87
2022/09/09 05:06:18;;;;;;;7.85;2.58;;;;;;;13.23;95.86;100574.91;4992600;28;20578;-86
2022/09/09 05:08:48;;;;;;;10.00;2.42;;;;;;;13.23;96.49;100565.84;4994992;28;20412;-86
2022/09/09 05:11:18;;;;;;;7.25;2.53;;;;;;;13.23;96.19;100563.13;4993393;28;20164;-86
2022/09/09 05:13:44;;;;;;;9.27;3.00;;;;;;;13.28;96.43;100569.03;4991710;28;20547;-86
2022/09/09 05:16:11;;;;;;;4.18;2.15;;;;;;;13.31;95.70;100567.91;4976594;28;20026;-86
2022/09/09 05:18:40;;;;;;;5.95;2.60;;;;;;;13.28;96.78;100561.72;4995368;28;20030;-85
2022/09/09 05:21:07;;;;;;;7.68;2.75;;;;;;;13.32;96.47;100567.78;5020004;28;20033;-86
2022/09/09 05:23:33;;;;;;;5.05;2.90;;;;;;;13.29;96.91;100565.34;5006741;28;20045;-85
2022/09/09 05:25:59;;;;;;;7.00;2.20;;;;;;;13.30;96.07;100560.72;4992294;28;20079;-86
2022/09/09 05:28:26;;;;;;;6.05;2.28;;;;;;;13.32;97.14;100548.66;4999400;28;20042;-86
2022/09/09 05:31:04;;;;;;;6.00;2.15;;;;;;;13.36;96.27;100555.56;4998982;28;20040;-86
2022/09/09 05:33:33;;;;;;;7.57;2.42;;;;;;;13.35;96.58;100551.13;5002714;28;20134;-86
2022/09/09 05:36:01;;;;;;;5.45;2.72;;;;;;;13.40;96.84;100557.03;4989652;28;20108;-86
2022/09/09 05:38:27;;;;;;;4.95;1.90;;;;;;;13.41;96.77;100549.69;4996336;28;20069;-85
2022/09/09 05:40:53;;;;;;;13.70;2.80;;;;;;;13.42;96.95;100548.69;4992305;28;20036;-86
2022/09/09 05:43:19;;;;;;;2.97;1.75;;;;;;;13.41;96.15;100552.44;4992286;28;20037;-85
2022/09/09 05:45:47;;;;;;;7.78;2.35;;;;;;;13.46;96.84;100555.63;4992195;28;20037;-86
2022/09/09 05:48:16;;;;;;;7.13;2.33;;;;;;;13.50;97.13;100565.28;4992302;28;20038;-86
2022/09/09 05:50:42;;;;;;;5.22;2.45;;;;;;;13.53;96.88;100570.47;4976132;28;20504;-87
2022/09/09 05:53:10;;;;;;;9.10;3.28;;;;;;;13.60;97.34;100570.78;4992175;28;20042;-86
2022/09/09 05:55:35;;;;;;;5.85;2.47;;;;;;;13.70;96.83;100569.81;4975689;28;20493;-86
2022/09/09 05:58:01;;;;;;;8.35;2.92;;;;;;;13.79;96.61;100579.06;4992271;28;20104;-86
2022/09/09 06:00:26;;;;;;;9.63;2.65;;;;;;;13.86;96.20;100576.66;5014045;28;20034;-86
2022/09/09 06:02:52;;;;;;;8.95;3.03;;;;;;;13.86;95.75;100574.78;4995521;28;20044;-86
2022/09/09 06:05:19;;;;;;;17.00;2.85;;;;;;;13.87;96.26;100572.91;4992426;28;20041;-86
2022/09/09 06:07:45;;;;;;;10.40;2.50;;;;;;;13.90;96.02;100575.38;4995577;28;20051;-87
2022/09/09 06:10:14;;;;;;;8.73;2.22;;;;;;;13.99;96.36;100580.00;5014821;28;20033;-87
2022/09/09 06:12:40;;;;;;;7.85;2.20;;;;;;;14.09;96.30;100578.16;5009858;28;20026;-86
2022/09/09 06:15:08;;;;;;;9.10;2.60;;;;;;;14.18;96.34;100570.97;5010985;28;20593;-87
2022/09/09 06:17:34;;;;;;;11.45;2.83;;;;;;;14.23;95.65;100569.53;5007249;28;20026;-87
2022/09/09 06:20:00;;;;;;;6.88;2.10;;;;;;;14.29;95.13;100579.06;4981570;28;20120;-87
2022/09/09 06:22:25;;;;;;;10.77;2.60;;;;;;;14.35;95.54;100581.22;5010402;28;20061;-87
2022/09/09 06:24:51;;;;;;;7.43;2.38;;;;;;;14.39;95.24;100570.84;5029149;28;20442;-86
2022/09/09 06:27:16;;;;;;;8.45;2.53;;;;;;;14.47;95.54;100582.81;4993858;28;20061;-85
2022/09/09 06:29:41;;;;;;;9.95;2.80;;;;;;;14.51;95.55;100577.97;4994365;28;20037;-87
2022/09/09 06:32:08;;;;;;;7.25;2.50;;;;;;;14.58;94.98;100581.84;4995534;28;20070;-87
2022/09/09 06:34:33;;;;;;;7.18;2.42;;;;;;;14.57;94.31;100582.00;4994775;28;20410;-86
2022/09/09 06:36:59;;;;;;;10.85;2.60;;;;;;;14.54;94.20;100577.66;5007023;28;20132;-87
2022/09/09 06:39:32;;;;;;;7.90;2.72;;;;;;;14.58;94.03;100580.97;4996890;28;20081;-85
2022/09/09 06:41:58;;;;;;;7.15;2.60;;;;;;;14.64;94.21;100577.66;5011658;28;20049;-87
2022/09/09 06:44:42;;;;;;;5.38;2.08;;;;;;;14.74;93.41;100586.75;5011496;28;20073;-87
2022/09/09 06:47:12;;;;;;;13.85;3.08;;;;;;;14.76;93.79;100574.63;5006990;28;20052;-87
2022/09/09 06:49:39;;;;;;;10.00;2.75;;;;;;;14.82;92.50;100580.53;5009818;28;20412;-86
2022/09/09 06:52:08;;;;;;;7.75;2.70;;;;;;;14.77;92.74;100570.88;4993878;28;20096;-87
2022/09/09 06:54:37;;;;;;;17.65;2.80;;;;;;;14.78;92.46;100572.63;5011380;28;20065;-86
2022/09/09 06:57:03;;;;;;;9.50;2.92;;;;;;;14.80;92.76;100567.88;4994301;28;20448;-86
2022/09/09 06:59:30;;;;;;;10.32;2.90;;;;;;;14.83;92.84;100574.03;4996787;28;20026;-87
2022/09/09 07:01:57;;;;;;;10.07;2.65;;;;;;;14.87;93.04;100576.34;4995477;28;20042;-87
2022/09/09 07:04:25;;;;;;;12.18;3.50;;;;;;;14.89;92.58;100566.13;5010454;28;20056;-87
2022/09/09 07:06:52;;;;;;;9.93;2.75;;;;;;;14.98;92.65;100570.72;4999148;28;20029;-87
2022/09/09 07:09:21;;;;;;;7.03;2.90;;;;;;;15.10;92.42;100578.78;4994196;28;20044;-87
2022/09/09 07:11:52;;;;;;;7.97;2.40;;;;;;;15.19;91.10;100583.38;5010200;28;20049;-86
2022/09/09 07:14:19;;;;;;;8.88;2.45;;;;;;;15.24;90.48;100572.84;5009069;28;20481;-87
2022/09/09 07:16:47;;;;;;;9.88;2.50;;;;;;;15.36;91.69;100576.28;4994067;28;20473;-86
2022/09/09 07:19:15;;;;;;;8.20;2.58;;;;;;;15.47;89.90;100574.22;5008054;28;20030;-87
2022/09/09 07:21:42;;;;;;;10.10;3.13;;;;;;;15.63;91.15;100565.38;5008455;28;20063;-87
2022/09/09 07:24:10;;;;;;;7.72;2.60;;;;;;;15.87;90.17;100570.34;4977248;28;20038;-87
2022/09/09 07:26:39;;;;;;;8.52;2.33;;;;;;;15.92;87.95;100561.66;5004155;28;20124;-87
2022/09/09 07:29:06;;;;;;;10.65;2.95;;;;;;;16.03;87.89;100567.78;5008704;28;20030;-86
2022/09/09 07:31:35;;;;;;;8.63;2.13;;;;;;;16.20;88.79;100563.34;4976463;28;20437;-84
2022/09/09 07:34:02;;;;;;;7.78;2.63;;;;;;;16.29;85.88;100567.06;4977630;28;20037;-87
2022/09/09 07:36:33;;;;;;;10.80;2.42;;;;;;;16.26;84.82;100575.59;4996732;28;20481;-87
2022/09/09 07:39:05;;;;;;;13.00;3.05;;;;;;;16.17;84.63;100573.78;4993915;28;20034;-87
2022/09/09 07:41:33;;;;;;;;;;;;;;;16.21;86.67;100572.44;4985210;28;20077;-87
2022/09/09 07:44:03;;;;;;;7.70;2.20;;;;;;;16.06;84.33;100578.47;5008793;28;19914;-87
2022/09/09 07:46:29;;;;;;;5.47;2.35;;;;;;;15.99;84.82;100577.34;5026134;28;20029;-86
2022/09/09 07:48:56;;;;;;;8.52;2.47;;;;;;;16.03;85.64;100581.50;5032494;28;20079;-87
2022/09/09 07:51:31;;;;;;;10.30;2.70;;;;;;;16.03;84.79;100581.50;5016034;28;20026;-87
2022/09/09 07:54:01;;;;;;;12.23;3.40;;;;;;;16.01;84.67;100574.44;4993969;28;20106;-87
2022/09/09 07:56:29;;;;;;;7.20;2.38;;;;;;;16.07;84.45;100568.34;4979998;28;20032;-87
2022/09/09 07:58:56;;;;;;;10.10;2.25;;;;;;;16.12;84.96;100568.75;4991352;28;20509;-86
2022/09/09 08:01:37;;;;;;;8.77;2.47;;;;;;;16.24;85.72;100570.25;4976030;28;20614;-87
2022/09/09 08:04:08;;;;;;;6.93;2.35;;;;;;;16.32;84.69;100564.00;4976073;28;20469;-86
2022/09/09 08:06:36;;;;;;;;;;;;;;;16.49;85.10;100573.25;5007130;28;20053;-87
2022/09/09 08:09:03;;;;;;;12.15;2.78;;;;;;;16.54;84.18;100566.28;5008151;28;19924;-85
2022/09/09 08:11:31;;;;;;;8.32;2.15;;;;;;;16.68;84.73;100567.59;5008355;28;20037;-86
2022/09/09 08:13:57;;;;;;;8.25;1.95;;;;;;;16.75;82.50;100574.25;5015434;28;20480;-87
2022/09/09 08:16:25;;;;;;;8.40;2.53;;;;;;;16.79;84.42;100572.06;5031269;28;20119;-87
2022/09/09 08:18:53;;;;;;;6.80;1.90;;;;;;;16.88;82.86;100576.59;5015019;28;20032;-87
2022/09/09 08:21:26;;;;;;;9.02;2.10;;;;;;;16.92;82.26;100568.88;5017368;28;20488;-86
2022/09/09 08:23:53;;;;;;;6.57;2.55;;;;;;;16.97;80.16;100569.25;5009452;28;20417;-87
2022/09/09 08:26:22;;;;;;;7.75;1.92;;;;;;;17.00;81.65;100568.94;5007626;28;20063;-87
2022/09/09 08:28:52;;;;;;;6.25;1.98;;;;;;;17.12;81.80;100581.44;5007267;28;20033;-87
2022/09/09 08:31:21;;;;;;;7.85;1.83;;;;;;;17.16;78.81;100573.69;5008121;28;20034;-87
2022/09/09 08:33:47;;;;;;;6.75;2.08;;;;;;;17.25;80.51;100579.13;5021235;28;20154;-87
2022/09/09 08:36:19;;;;;;;8.80;2.10;;;;;;;17.29;78.64;100582.38;5016910;28;20057;-86
2022/09/09 08:38:50;;;;;;;;;;;;;;;17.40;80.55;100586.78;5006407;28;20053;-86
2022/09/09 08:41:39;;;;;;;9.32;2.30;;;;;;;17.30;79.90;100581.41;4990974;28;19936;-86
2022/09/09 08:44:42;;;;;;;8.32;1.95;;;;;;;17.28;79.47;100595.28;5007036;28;20041;-86
2022/09/09 08:47:08;;;;;;;;;;;;;;;17.27;80.21;100593.56;5003369;28;20034;-86
2022/09/09 08:50:09;;;;;;;8.05;2.13;;;;;;;17.08;79.75;100577.28;4975885;28;20096;-86
2022/09/09 08:52:39;;;;;;;10.27;2.05;;;;;;;17.03;80.70;100593.38;4992141;28;20030;-86
2022/09/09 08:55:41;;;;;;;8.65;2.30;;;;;;;17.05;79.86;100592.19;4975051;28;20034;-85
2022/09/09 08:58:14;;;;;;;11.82;2.03;;;;;;;17.06;79.69;100590.28;4989251;28;20115;-86
2022/09/09 09:01:09;;;;;;;6.97;2.20;;;;;;;17.03;79.35;100605.22;4975308;28;20136;-85
2022/09/09 09:03:55;;;;;;;5.28;2.00;;;;;;;17.12;79.59;100597.06;5006354;28;20121;-86
2022/09/09 09:06:35;;;;;;;9.13;2.10;;;;;;;17.20;79.47;100600.72;5005057;28;20046;-86
2022/09/09 09:09:05;;;;;;;7.60;1.90;;;;;;;17.18;76.76;100605.53;5007388;28;20103;-86
2022/09/09 09:11:37;;;;;;;6.72;2.10;;;;;;;17.14;77.18;100609.59;4991036;28;20042;-85
2022/09/09 09:14:10;;;;;;;12.07;2.28;;;;;;;17.10;77.57;100599.94;5007236;28;20136;-85
2022/09/09 09:16:54;;;;;;;11.60;2.35;;;;;;;17.15;78.03;100607.72;4993328;28;20398;-86
2022/09/09 09:19:23;;;;;;;8.05;2.15;;;;;;;17.20;79.56;100606.22;4990207;28;20446;-85
2022/09/09 09:22:02;;;;;;;8.05;1.90;;;;;;;17.29;79.20;100608.00;4984505;28;20492;-85
2022/09/09 09:24:51;;;;;;;12.63;1.98;;;;;;;17.48;78.41;100609.69;5007577;28;20049;-86
2022/09/09 09:27:35;;;;;;;7.35;1.88;;;;;;;17.46;76.27;100611.75;5006716;28;20084;-86
2022/09/09 09:30:17;;;;;;;7.82;2.25;;;;;;;17.42;77.73;100607.59;4986738;28;20485;-84
2022/09/09 09:33:14;;;;;;;6.35;1.65;;;;;;;17.43;77.58;100620.31;4994765;28;20037;-85
2022/09/09 09:35:40;;;;;;;8.23;2.03;;;;;;;17.40;76.77;100617.91;4990702;28;20030;-86
2022/09/09 09:38:21;;;;;;;6.38;1.70;;;;;;;17.49;77.23;100622.44;4989668;28;20037;-85
2022/09/09 09:40:57;;;;;;;8.90;2.08;;;;;;;17.51;76.79;100617.63;4990375;28;20508;-85
2022/09/09 09:43:30;;;;;;;6.25;1.77;;;;;;;17.64;77.81;100608.94;5008120;28;20042;-85
2022/09/09 09:45:58;;;;;;;6.00;1.90;;;;;;;17.71;77.73;100609.13;4990914;28;20026;-85
2022/09/09 09:48:26;;;;;;;8.63;2.13;;;;;;;17.65;76.70;100618.06;4998360;28;20044;-85
2022/09/09 09:50:57;;;;;;;8.30;2.10;;;;;;;17.56;78.45;100617.13;5003558;28;20048;-85
2022/09/09 09:53:29;;;;;;;6.13;2.25;;;;;;;17.45;78.89;100610.03;5002256;28;20523;-85
2022/09/09 09:56:06;;;;;;;14.25;2.20;;;;;;;17.42;80.08;100607.59;4992100;28;20022;-86
2022/09/09 09:58:50;;;;;;;7.97;1.90;;;;;;;17.36;79.41;100611.00;5005995;28;20489;-85
2022/09/09 10:01:31;;;;;;;4.82;2.10;;;;;;;17.25;79.42;100602.97;5000978;28;20033;-84
2022/09/09 10:04:01;;;;;;;10.25;2.25;;;;;;;17.13;79.45;100607.03;5010850;28;20034;-87
2022/09/09 10:06:33;;;;;;;9.65;1.90;;;;;;;17.12;79.54;100621.81;5003848;28;20132;-86
2022/09/09 10:08:59;;;;;;;9.02;2.00;;;;;;;17.00;80.52;100619.28;5009901;28;20485;-87
2022/09/09 10:11:52;;;;;;;7.07;2.20;;;;;;;16.87;81.14;100609.72;4993129;28;20053;-86
2022/09/09 10:14:30;;;;;;;9.38;2.20;;;;;;;16.81;82.13;100616.69;4994723;28;20040;-87
2022/09/09 10:17:23;;;;;;;6.60;1.83;;;;;;;16.78;81.69;100620.63;4991472;28;20112;-87
2022/09/09 10:20:14;;;;;;;8.43;2.38;;;;;;;16.68;82.31;100621.69;5015175;28;20098;-86
2022/09/09 10:22:47;;;;;;;10.40;2.42;;;;;;;16.71;83.69;100624.13;4967348;28;20140;-87
2022/09/09 10:25:35;;;;;;;7.35;2.53;;;;;;;16.74;84.02;100615.59;5027156;28;20033;-87
2022/09/09 10:28:16;;;;;;;5.28;2.22;;;;;;;16.74;84.15;100613.75;5004745;28;20041;-86
2022/09/09 10:31:13;;;;;;;5.30;2.35;;;;;;;16.76;83.83;100625.41;4990345;28;20048;-87
2022/09/09 10:34:02;;;;;;;6.72;2.33;;;;;;;16.77;83.55;100626.28;4974318;28;20453;-87
2022/09/09 10:36:28;;;;;;;8.60;2.08;;;;;;;16.64;84.02;100634.88;4988152;28;20056;-86
2022/09/09 10:39:01;;;;;;;13.07;2.08;;;;;;;16.56;84.28;100627.41;5004345;28;20443;-87
2022/09/09 10:41:55;;;;;;;8.05;2.28;;;;;;;16.65;85.48;100624.78;4974091;28;20038;-87
2022/09/09 10:44:21;;;;;;;6.65;2.13;;;;;;;16.72;84.56;100625.88;5007875;28;20511;-87
2022/09/09 10:47:01;;;;;;;6.78;2.60;;;;;;;16.69;85.32;100615.16;4984748;28;20021;-87
2022/09/09 10:50:08;;;;;;;7.47;2.60;;;;;;;16.74;84.62;100618.34;5004818;28;20481;-86
2022/09/09 10:53:02;;;;;;;6.88;2.30;;;;;;;16.81;84.58;100624.94;5011640;28;20496;-86
2022/09/09 10:55:57;;;;;;;5.22;2.42;;;;;;;16.90;84.49;100624.00;5017101;28;20029;-87
2022/09/09 10:58:30;;;;;;;8.82;2.42;;;;;;;16.98;84.47;100624.09;4993522;28;20641;-87
2022/09/09 11:01:02;;;;;;;8.20;2.40;;;;;;;17.01;83.90;100615.50;4996480;28;20129;-87
2022/09/09 11:03:29;;;;;;;10.02;2.20;;;;;;;17.07;84.47;100623.13;5001661;28;20041;-87
2022/09/09 11:06:03;;;;;;;5.78;2.13;;;;;;;17.14;83.45;100634.34;5013187;28;20083;-87
2022/09/09 11:08:33;;;;;;;6.35;2.17;;;;;;;17.08;82.49;100619.38;4997959;28;20033;-87
2022/09/09 11:11:13;;;;;;;5.97;2.60;;;;;;;17.10;83.69;100624.69;5020479;28;20704;-87
2022/09/09 11:13:58;;;;;;;7.30;2.25;;;;;;;17.11;82.88;100620.06;4993332;28;20133;-88
2022/09/09 11:16:31;;;;;;;8.18;1.95;;;;;;;17.16;83.42;100620.44;5005741;28;20044;-87
2022/09/09 11:19:36;;;;;;;6.95;2.33;;;;;;;17.32;84.45;100621.44;5012516;28;20065;-87
2022/09/09 11:22:16;;;;;;;7.07;2.42;;;;;;;17.46;84.97;100616.38;4976911;28;20068;-87
2022/09/09 11:24:46;;;;;;;7.53;2.60;;;;;;;17.55;83.44;100624.53;5011095;28;20034;-87
2022/09/09 11:27:26;;;;;;;4.82;1.92;;;;;;;17.57;81.68;100610.59;5012061;28;20481;-88
2022/09/09 11:30:16;;;;;;;6.95;2.30;;;;;;;17.63;81.86;100618.22;5009300;28;20041;-88
2022/09/09 11:33:01;;;;;;;6.20;2.28;;;;;;;17.50;81.69;100615.03;5010786;28;20064;-88
2022/09/09 11:36:04;;;;;;;8.02;2.33;;;;;;;17.40;83.46;100615.16;5000987;28;20076;-88
2022/09/09 11:38:51;;;;;;;6.63;2.28;;;;;;;17.25;83.37;100603.88;5005005;28;20038;-87
2022/09/09 11:41:18;;;;;;;5.47;2.47;;;;;;;17.17;83.47;100608.44;4981687;28;20047;-87
2022/09/09 11:43:46;;;;;;;5.20;2.22;;;;;;;17.11;82.88;100622.81;5011486;28;20485;-87
2022/09/09 11:46:18;;;;;;;4.70;2.00;;;;;;;16.97;82.83;100614.13;5026259;28;20038;-87
2022/09/09 11:48:45;;;;;;;6.05;2.65;;;;;;;16.92;83.41;100613.72;5007844;28;20034;-87
2022/09/09 11:51:25;;;;;;;4.55;2.20;;;;;;;16.93;83.68;100612.72;4979179;28;20501;-87
2022/09/09 11:53:53;;;;;;;5.20;2.22;;;;;;;16.94;83.54;100608.06;4989403;28;20419;-88